Pagina principale
METAR-TAF:

METAR-TAF

Aeroporti :

Le Mans, Francia

latitudine: 47-56N, longitudine: 000-12E, altezza: 59 m

Osservazione

Il bollettino è stato emesso 34 minuti fa, alle 00:00 UTC
Vento 9 kt da nord, variando fra nord-ovest e nord/nord-est
Temperature 22°C
Umidità 65%
Pressione 1020 hPa
Visibilità 10 km o più
nessuna nube inferiore a 1500 m e nessun cumulonembo

METAR: LFRM 150000Z AUTO 35009KT 320V020 CAVOK 22/15 Q1020

Ora: 02:34 (00:34 UTC)

Previsione

Il bollettino è stato emesso 7 ore e 34 minuti fa, alle 17:00 UTC
Previsione valida dal 14 alle 18 UTC al 15 alle 18 UTC
Vento 4 kt da nord-ovest
Visibilità 10 km o più
nessuna nube inferiore a 1500 m e nessun cumulonembo
Evoluzione graduale
dal 14 alle 18 UTC al 14 alle 20 UTC
Vento 12 kt da nord

TAF: LFRM 141700Z 1418/1518 32004KT CAVOK BECMG 1418/1420 35012KT

Osservazioni e previsioni meteorologiche di più di 4000 aeroporti (messaggi METAR e TAF).

Le stazioni disponibili sono rappresentate dai dischi gialli e rossi sulla carta.

Puntare il mouse per vedere il nome della stazione.

Clicca sopra per visualizzare le osservazioni e previsioni meteorologiche.

Per cambiare la mappa : fare clic sui pulsanti verdi con una croce nera per ingrandire, il pulsante verde con un trattino per diminuire, o sulla freccia verde per le mappe adiacenti.


METAR-TAF: